createdAt,value
2018-02-05T00:00:25.191Z,3.68
2018-02-05T00:00:51.236Z,3.73
2018-02-05T00:01:17.333Z,3.65
2018-02-05T00:01:43.429Z,3.69
2018-02-05T00:02:09.535Z,3.77
2018-02-05T00:02:35.651Z,3.63
2018-02-05T00:03:01.762Z,3.62
2018-02-05T00:03:27.863Z,3.76
2018-02-05T00:03:53.968Z,3.68
2018-02-05T00:04:20.066Z,3.78
2018-02-05T00:04:46.167Z,3.81
2018-02-05T00:05:12.293Z,3.74
2018-02-05T00:05:38.389Z,3.74
2018-02-05T00:06:04.484Z,3.69
2018-02-05T00:06:30.589Z,3.63
2018-02-05T00:06:56.689Z,3.74
2018-02-05T00:07:22.782Z,3.65
2018-02-05T00:07:48.886Z,3.62
2018-02-05T00:08:15.014Z,3.69
2018-02-05T00:08:41.120Z,3.68
2018-02-05T00:09:07.508Z,3.77
2018-02-05T00:09:33.614Z,3.68
2018-02-05T00:09:59.717Z,3.69
2018-02-05T00:10:25.807Z,3.62
2018-02-05T00:10:51.910Z,3.65
2018-02-05T00:11:18.009Z,3.81
2018-02-05T00:11:44.108Z,3.7
2018-02-05T00:12:10.211Z,3.76
2018-02-05T00:12:36.321Z,3.76
2018-02-05T00:13:02.432Z,3.8
2018-02-05T00:13:28.536Z,3.84
2018-02-05T00:13:54.630Z,3.77
2018-02-05T00:14:20.742Z,3.77
2018-02-05T00:14:46.833Z,3.81
2018-02-05T00:15:12.934Z,3.8
2018-02-05T00:15:39.038Z,3.68
2018-02-05T00:16:05.135Z,3.74
2018-02-05T00:16:31.239Z,3.81
2018-02-05T00:16:57.340Z,3.76
2018-02-05T00:17:23.557Z,3.77
2018-02-05T00:17:49.648Z,3.68
2018-02-05T00:18:15.747Z,3.68
2018-02-05T00:18:41.861Z,3.69
2018-02-05T00:19:07.960Z,3.62
2018-02-05T00:19:34.070Z,3.69
2018-02-05T00:20:00.182Z,3.68
2018-02-05T00:20:26.287Z,3.65
2018-02-05T00:20:52.381Z,3.66
2018-02-05T00:21:18.486Z,3.6
2018-02-05T00:21:44.620Z,3.74
2018-02-05T00:22:10.717Z,3.68
2018-02-05T00:22:36.818Z,3.56
2018-02-05T00:23:02.917Z,3.56
2018-02-05T00:23:29.016Z,3.53
2018-02-05T00:23:55.120Z,3.56
2018-02-05T00:24:21.213Z,3.58
2018-02-05T00:24:47.318Z,3.5
2018-02-05T00:25:13.417Z,3.5
2018-02-05T00:25:39.509Z,3.5
2018-02-05T00:26:05.604Z,3.5
2018-02-05T00:26:31.702Z,3.51
2018-02-05T00:26:57.807Z,3.48
2018-02-05T00:27:23.908Z,3.45
2018-02-05T00:27:50.013Z,3.45
2018-02-05T00:28:16.109Z,3.45
2018-02-05T00:28:42.207Z,3.47
2018-02-05T00:29:08.309Z,3.53
2018-02-05T00:29:34.409Z,3.42
2018-02-05T00:30:00.509Z,3.44
2018-02-05T00:30:26.602Z,3.41
2018-02-05T00:30:52.703Z,3.34
2018-02-05T00:31:18.795Z,3.37
2018-02-05T00:31:44.897Z,3.42
2018-02-05T00:32:11.017Z,3.45
2018-02-05T00:32:37.165Z,3.36
2018-02-05T00:33:03.276Z,3.42
2018-02-05T00:33:29.372Z,3.45
2018-02-05T00:33:55.503Z,3.42
2018-02-05T00:34:21.588Z,3.42
2018-02-05T00:34:47.688Z,3.5
2018-02-05T00:35:13.796Z,3.48
2018-02-05T00:35:39.890Z,3.55
2018-02-05T00:36:05.994Z,3.48
2018-02-05T00:36:32.094Z,3.62
2018-02-05T00:36:58.208Z,3.53
2018-02-05T00:37:24.309Z,3.55
2018-02-05T00:37:50.424Z,3.51
2018-02-05T00:38:16.571Z,3.5
2018-02-05T00:38:42.660Z,3.51
2018-02-05T00:39:08.815Z,3.53
2018-02-05T00:39:34.910Z,3.55
2018-02-05T00:40:01.022Z,3.5
2018-02-05T00:40:27.125Z,3.48
2018-02-05T00:40:53.225Z,3.48
2018-02-05T00:41:19.324Z,3.47
2018-02-05T00:41:45.427Z,3.45
2018-02-05T00:42:11.523Z,3.42
2018-02-05T00:42:37.622Z,3.41
2018-02-05T00:43:03.724Z,3.37
2018-02-05T00:43:29.819Z,3.31
2018-02-05T00:43:55.962Z,3.25
2018-02-05T00:44:22.058Z,3.22
2018-02-05T00:44:48.162Z,3.25
2018-02-05T00:45:14.256Z,3.13
2018-02-05T00:45:40.367Z,3.19
2018-02-05T00:46:06.483Z,3.14
2018-02-05T00:46:32.591Z,3.18
2018-02-05T00:46:58.711Z,3.19
2018-02-05T00:47:24.822Z,3.08
2018-02-05T00:47:50.938Z,3.11
2018-02-05T00:48:17.050Z,3.16
2018-02-05T00:48:43.161Z,3.13
2018-02-05T00:49:09.281Z,3.19
2018-02-05T00:49:35.394Z,3.1
2018-02-05T00:50:01.553Z,3.1
2018-02-05T00:50:27.623Z,3.11
2018-02-05T00:50:53.731Z,3.13
2018-02-05T00:51:19.840Z,3.18
2018-02-05T00:51:45.957Z,3.11
2018-02-05T00:52:12.074Z,3.1
2018-02-05T00:52:38.189Z,3.07
2018-02-05T00:53:04.307Z,3.04
2018-02-05T00:53:30.422Z,3.05
2018-02-05T00:53:56.530Z,3.01
2018-02-05T00:54:22.783Z,3.05
2018-02-05T00:54:49.175Z,3.11
2018-02-05T00:55:15.292Z,3.08
2018-02-05T00:55:41.405Z,3.04
2018-02-05T00:56:07.528Z,3.01
2018-02-05T00:56:33.633Z,2.98
2018-02-05T00:56:59.757Z,3.08
2018-02-05T00:57:25.879Z,3.07
2018-02-05T00:57:51.995Z,3
2018-02-05T00:58:18.107Z,3.04
2018-02-05T00:58:44.223Z,3.14
2018-02-05T00:59:10.353Z,3.19
2018-02-05T00:59:36.490Z,3.1
2018-02-05T01:00:02.607Z,3.28
2018-02-05T01:00:28.718Z,3.18
2018-02-05T01:00:54.838Z,3.22
2018-02-05T01:01:20.972Z,3.18
2018-02-05T01:01:47.091Z,3.31
2018-02-05T01:02:13.220Z,3.37
2018-02-05T01:02:39.337Z,3.32
2018-02-05T01:03:05.448Z,3.26
2018-02-05T01:03:31.569Z,3.31
2018-02-05T01:03:57.678Z,3.29
2018-02-05T01:04:23.797Z,3.23
2018-02-05T01:04:49.909Z,3.22
2018-02-05T01:05:16.024Z,3.22
2018-02-05T01:05:42.164Z,3.25
2018-02-05T01:06:08.277Z,3.25
2018-02-05T01:06:34.386Z,3.22
2018-02-05T01:07:00.504Z,3.32
2018-02-05T01:07:26.618Z,3.28
2018-02-05T01:07:52.731Z,3.22
2018-02-05T01:08:18.842Z,3.25
2018-02-05T01:08:44.962Z,3.28
2018-02-05T01:09:11.071Z,3.29
2018-02-05T01:09:37.182Z,3.26
2018-02-05T01:10:03.301Z,3.31
2018-02-05T01:10:29.416Z,3.26
2018-02-05T01:10:55.529Z,3.29
2018-02-05T01:11:21.633Z,3.4
2018-02-05T01:11:47.751Z,3.34
2018-02-05T01:12:13.867Z,3.23
2018-02-05T01:12:39.980Z,3.23
2018-02-05T01:13:06.109Z,3.21
2018-02-05T01:13:32.227Z,3.28
2018-02-05T01:13:58.342Z,3.21
2018-02-05T01:14:24.491Z,3.23
2018-02-05T01:14:50.574Z,3.22
2018-02-05T01:15:16.713Z,3.25
2018-02-05T01:15:42.824Z,3.28
2018-02-05T01:16:08.961Z,3.19
2018-02-05T01:16:35.073Z,3.26
2018-02-05T01:17:01.189Z,3.26
2018-02-05T01:17:27.306Z,3.23
2018-02-05T01:17:53.412Z,3.26
2018-02-05T01:18:19.532Z,3.34
2018-02-05T01:18:45.649Z,3.37
2018-02-05T01:19:11.788Z,3.44
2018-02-05T01:19:37.906Z,3.44
2018-02-05T01:20:04.023Z,3.34
2018-02-05T01:20:30.136Z,3.31
2018-02-05T01:20:56.260Z,3.4
2018-02-05T01:21:22.379Z,3.34
2018-02-05T01:21:48.495Z,3.37
2018-02-05T01:22:14.608Z,3.36
2018-02-05T01:22:40.724Z,3.37
2018-02-05T01:23:06.835Z,3.32
2018-02-05T01:23:32.948Z,3.22
2018-02-05T01:23:59.068Z,3.25
2018-02-05T01:24:25.181Z,3.32
2018-02-05T01:24:51.294Z,3.34
2018-02-05T01:25:17.412Z,3.28
2018-02-05T01:25:43.523Z,3.28
2018-02-05T01:26:09.638Z,3.16
2018-02-05T01:26:35.746Z,3.11
2018-02-05T01:27:01.867Z,3.13
2018-02-05T01:27:27.975Z,3.11
2018-02-05T01:27:54.089Z,3.21
2018-02-05T01:28:20.205Z,3.21
2018-02-05T01:28:46.324Z,3.23
2018-02-05T01:29:12.433Z,3.25
2018-02-05T01:29:38.545Z,3.23
2018-02-05T01:30:04.665Z,3.18
2018-02-05T01:30:30.771Z,3.23
2018-02-05T01:30:56.889Z,3.28
2018-02-05T01:31:23.002Z,3.23
2018-02-05T01:31:49.120Z,3.25
2018-02-05T01:32:15.236Z,3.21
2018-02-05T01:32:41.371Z,3.26
2018-02-05T01:33:07.486Z,3.22
2018-02-05T01:33:33.605Z,3.28
2018-02-05T01:33:59.719Z,3.22
2018-02-05T01:34:25.831Z,3.26
2018-02-05T01:34:51.945Z,3.19
2018-02-05T01:35:18.058Z,3.32
2018-02-05T01:35:44.169Z,3.25
2018-02-05T01:36:10.302Z,3.26
2018-02-05T01:36:36.425Z,3.23
2018-02-05T01:37:02.540Z,3.25
2018-02-05T01:37:28.671Z,3.14
2018-02-05T01:37:54.781Z,3.18
2018-02-05T01:38:20.921Z,3.18
2018-02-05T01:38:47.029Z,3.14
2018-02-05T01:39:13.144Z,3.03
2018-02-05T01:39:39.261Z,2.97
2018-02-05T01:40:05.379Z,2.97
2018-02-05T01:40:31.496Z,2.98
2018-02-05T01:40:57.624Z,2.97
2018-02-05T01:41:23.746Z,3.03
2018-02-05T01:41:49.873Z,3.04
2018-02-05T01:42:15.988Z,2.9
2018-02-05T01:42:42.102Z,2.98
2018-02-05T01:43:08.215Z,2.98
2018-02-05T01:43:34.329Z,2.85
2018-02-05T01:44:00.449Z,3
2018-02-05T01:44:26.559Z,2.87
2018-02-05T01:44:52.677Z,2.86
2018-02-05T01:45:18.804Z,2.98
2018-02-05T01:45:44.926Z,2.93
2018-02-05T01:46:11.044Z,2.97
2018-02-05T01:46:37.153Z,2.9
2018-02-05T01:47:03.266Z,2.8
2018-02-05T01:47:29.383Z,2.89
2018-02-05T01:47:55.502Z,2.97
2018-02-05T01:48:21.614Z,2.89
2018-02-05T01:48:47.731Z,2.79
2018-02-05T01:49:13.843Z,2.83
2018-02-05T01:49:39.959Z,2.9
2018-02-05T01:50:06.071Z,2.87
2018-02-05T01:50:32.187Z,2.87
2018-02-05T01:50:58.298Z,2.9
2018-02-05T01:51:24.416Z,2.93
2018-02-05T01:51:50.525Z,2.85
2018-02-05T01:52:16.644Z,2.87
2018-02-05T01:52:42.757Z,2.86
2018-02-05T01:53:08.872Z,2.9
2018-02-05T01:53:34.989Z,2.87
2018-02-05T01:54:01.098Z,2.83
2018-02-05T01:54:27.210Z,2.83
2018-02-05T01:54:53.325Z,2.79
2018-02-05T01:55:19.433Z,2.85
2018-02-05T01:55:45.567Z,2.9
2018-02-05T01:56:11.689Z,2.86
2018-02-05T01:56:37.799Z,2.79
2018-02-05T01:57:03.916Z,2.69
2018-02-05T01:57:30.032Z,2.68
2018-02-05T01:57:56.146Z,2.8
2018-02-05T01:58:22.255Z,2.72
2018-02-05T01:58:48.975Z,2.85
2018-02-05T01:59:15.093Z,2.85
2018-02-05T01:59:41.202Z,2.83
2018-02-05T02:00:07.323Z,2.87
2018-02-05T02:00:33.435Z,2.85
2018-02-05T02:00:59.585Z,2.82
2018-02-05T02:01:25.709Z,2.77
2018-02-05T02:01:51.812Z,2.82
2018-02-05T02:02:17.931Z,2.72
2018-02-05T02:02:44.069Z,2.77
2018-02-05T02:03:10.184Z,2.75
2018-02-05T02:03:36.296Z,2.72
2018-02-05T02:04:02.411Z,2.8
2018-02-05T02:04:28.526Z,2.69
2018-02-05T02:04:54.635Z,2.69
2018-02-05T02:05:20.743Z,2.71
2018-02-05T02:05:46.863Z,2.77
2018-02-05T02:06:12.976Z,2.74
2018-02-05T02:06:39.089Z,2.77
2018-02-05T02:07:05.195Z,2.77
2018-02-05T02:07:31.314Z,2.72
2018-02-05T02:07:57.429Z,2.62
2018-02-05T02:08:23.536Z,2.67
2018-02-05T02:08:49.651Z,2.71
2018-02-05T02:09:15.763Z,2.68
2018-02-05T02:09:41.882Z,2.64
2018-02-05T02:10:07.991Z,2.71
2018-02-05T02:10:34.103Z,2.65
2018-02-05T02:11:00.218Z,2.62
2018-02-05T02:11:26.330Z,2.64
2018-02-05T02:11:52.447Z,2.62
2018-02-05T02:12:18.555Z,2.67
2018-02-05T02:12:44.673Z,2.71
2018-02-05T02:13:10.788Z,2.65
2018-02-05T02:13:36.901Z,2.72
2018-02-05T02:14:03.050Z,2.72
2018-02-05T02:14:29.186Z,2.72
2018-02-05T02:14:55.299Z,2.77
2018-02-05T02:15:21.408Z,2.67
2018-02-05T02:15:47.527Z,2.74
2018-02-05T02:16:13.633Z,2.74
2018-02-05T02:16:39.752Z,2.75
2018-02-05T02:17:05.865Z,2.75
2018-02-05T02:17:31.976Z,2.72
2018-02-05T02:17:58.085Z,2.74
2018-02-05T02:18:24.201Z,2.86
2018-02-05T02:18:50.313Z,2.86
2018-02-05T02:19:16.448Z,2.87
2018-02-05T02:19:42.555Z,2.97
2018-02-05T02:20:08.669Z,2.87
2018-02-05T02:20:34.780Z,3.01
2018-02-05T02:21:00.896Z,2.83
2018-02-05T02:21:27.011Z,2.93
2018-02-05T02:21:53.127Z,3.04
2018-02-05T02:22:19.258Z,3.03
2018-02-05T02:22:45.377Z,3.01
2018-02-05T02:23:11.488Z,3.05
2018-02-05T02:23:37.599Z,3.04
2018-02-05T02:24:03.710Z,3.04
2018-02-05T02:24:29.822Z,3.11
2018-02-05T02:24:55.939Z,3.05
2018-02-05T02:25:22.056Z,3.05
2018-02-05T02:25:48.184Z,3.03
2018-02-05T02:26:14.295Z,3.04
2018-02-05T02:26:40.415Z,3.08
2018-02-05T02:27:06.521Z,3.08
2018-02-05T02:27:32.642Z,3.08
2018-02-05T02:27:58.758Z,3.05
2018-02-05T02:28:24.867Z,3.11
2018-02-05T02:28:50.980Z,3.1
2018-02-05T02:29:17.112Z,3.18
2018-02-05T02:29:43.298Z,3.18
2018-02-05T02:30:09.366Z,3.16
2018-02-05T02:30:35.477Z,3.18
2018-02-05T02:31:01.596Z,3.21
2018-02-05T02:31:27.705Z,3.28
2018-02-05T02:31:53.818Z,3.23
2018-02-05T02:32:19.953Z,3.28
2018-02-05T02:32:46.108Z,3.28
2018-02-05T02:33:12.219Z,3.25
2018-02-05T02:33:38.328Z,3.31
2018-02-05T02:34:04.439Z,3.25
2018-02-05T02:34:30.553Z,3.31
2018-02-05T02:34:56.663Z,3.28
2018-02-05T02:35:22.784Z,3.22
2018-02-05T02:35:48.896Z,3.18
2018-02-05T02:36:15.014Z,3.19
2018-02-05T02:36:41.130Z,3.21
2018-02-05T02:37:07.238Z,3.26
2018-02-05T02:37:33.366Z,3.21
2018-02-05T02:37:59.483Z,3.18
2018-02-05T02:38:25.597Z,3.16
2018-02-05T02:38:51.710Z,3.16
2018-02-05T02:39:17.830Z,3.11
2018-02-05T02:39:43.942Z,3.21
2018-02-05T02:40:10.080Z,3.18
2018-02-05T02:40:36.186Z,3.1
2018-02-05T02:41:02.297Z,3.07
2018-02-05T02:41:28.413Z,3.04
2018-02-05T02:41:54.522Z,3.05
2018-02-05T02:42:20.635Z,3.01
2018-02-05T02:42:46.748Z,3.05
2018-02-05T02:43:12.862Z,3.13
2018-02-05T02:43:38.991Z,3.08
2018-02-05T02:44:05.105Z,3.16
2018-02-05T02:44:31.237Z,3.18
2018-02-05T02:44:57.346Z,3.11
2018-02-05T02:45:23.464Z,3.11
2018-02-05T02:45:49.574Z,3.08
2018-02-05T02:46:15.706Z,3.07
2018-02-05T02:46:41.825Z,3.07
2018-02-05T02:47:07.931Z,3.13
2018-02-05T02:47:34.051Z,3.13
2018-02-05T02:48:00.179Z,3.08
2018-02-05T02:48:26.292Z,3.1
2018-02-05T02:48:52.401Z,3.08
2018-02-05T02:49:18.523Z,3.16
2018-02-05T02:49:44.638Z,3.19
2018-02-05T02:50:10.769Z,3.22
2018-02-05T02:50:36.888Z,3.13
2018-02-05T02:51:02.995Z,3.19
2018-02-05T02:51:29.108Z,3.23
2018-02-05T02:51:55.222Z,3.22
2018-02-05T02:52:21.333Z,3.23
2018-02-05T02:52:47.448Z,3.19
2018-02-05T02:53:13.560Z,3.19
2018-02-05T02:53:39.671Z,3.23
2018-02-05T02:54:05.783Z,3.22
2018-02-05T02:54:31.902Z,3.21
2018-02-05T02:54:58.022Z,3.26
2018-02-05T02:55:24.135Z,3.11
2018-02-05T02:55:50.252Z,3.03
2018-02-05T02:56:16.366Z,3.18
2018-02-05T02:56:42.478Z,3.11
2018-02-05T02:57:08.587Z,3.11
2018-02-05T02:57:34.699Z,3.16
2018-02-05T02:58:00.818Z,3.28
2018-02-05T02:58:26.927Z,3.28
2018-02-05T02:58:53.043Z,3.25
2018-02-05T02:59:19.150Z,3.36
2018-02-05T02:59:45.262Z,3.36
2018-02-05T03:00:11.377Z,3.23
2018-02-05T03:00:37.490Z,3.37
2018-02-05T03:01:03.599Z,3.28
2018-02-05T03:01:29.716Z,3.37
2018-02-05T03:01:55.826Z,3.29
2018-02-05T03:02:21.941Z,3.28
2018-02-05T03:02:48.073Z,3.22
2018-02-05T03:03:14.190Z,3.28
2018-02-05T03:03:40.303Z,3.26
2018-02-05T03:04:06.413Z,3.32
2018-02-05T03:04:32.527Z,3.23
2018-02-05T03:04:58.635Z,3.31
2018-02-05T03:05:24.747Z,3.26
2018-02-05T03:05:50.862Z,3.21
2018-02-05T03:06:16.972Z,3.31
2018-02-05T03:06:43.088Z,3.25
2018-02-05T03:07:09.196Z,3.25
2018-02-05T03:07:35.311Z,3.19
2018-02-05T03:08:01.472Z,3.21
2018-02-05T03:08:27.538Z,3.1
2018-02-05T03:08:53.656Z,3.08
2018-02-05T03:09:19.763Z,3.03
2018-02-05T03:09:45.876Z,3.05
2018-02-05T03:10:11.987Z,3.11
2018-02-05T03:10:38.102Z,3.14
2018-02-05T03:11:04.215Z,3.16
2018-02-05T03:11:30.324Z,3.16
2018-02-05T03:11:56.441Z,3.1
2018-02-05T03:12:22.550Z,3.13
2018-02-05T03:12:48.663Z,3.16
2018-02-05T03:13:14.799Z,3.18
2018-02-05T03:13:40.901Z,3.03
2018-02-05T03:14:07.063Z,3.05
2018-02-05T03:14:33.182Z,3.01
2018-02-05T03:14:59.298Z,2.95
2018-02-05T03:15:25.409Z,3.03
2018-02-05T03:15:51.527Z,2.93
2018-02-05T03:16:17.634Z,2.97
2018-02-05T03:16:43.753Z,3.04
2018-02-05T03:17:09.863Z,3.04
2018-02-05T03:17:35.980Z,3.13
2018-02-05T03:18:02.092Z,3.14
2018-02-05T03:18:28.198Z,3.05
2018-02-05T03:18:54.315Z,3.19
2018-02-05T03:19:20.421Z,3.08
2018-02-05T03:19:46.553Z,3.18
2018-02-05T03:20:12.668Z,3.11
2018-02-05T03:20:38.786Z,3.13
2018-02-05T03:21:04.918Z,3.14
2018-02-05T03:21:31.037Z,3.14
2018-02-05T03:21:57.145Z,3.07
2018-02-05T03:22:23.265Z,3.11
2018-02-05T03:22:49.381Z,3.08
2018-02-05T03:23:15.491Z,3.1
2018-02-05T03:23:41.600Z,3.08
2018-02-05T03:24:07.711Z,3.13
2018-02-05T03:24:33.830Z,3.08
2018-02-05T03:24:59.960Z,3.07
2018-02-05T03:25:26.071Z,3.07
2018-02-05T03:25:52.205Z,3.11
2018-02-05T03:26:18.314Z,3.03
2018-02-05T03:26:44.430Z,3.04
2018-02-05T03:27:10.550Z,3.03
2018-02-05T03:27:36.659Z,3.08
2018-02-05T03:28:02.778Z,3.1
2018-02-05T03:28:28.886Z,3.01
2018-02-05T03:28:54.998Z,3.08
2018-02-05T03:29:21.115Z,2.86
2018-02-05T03:29:47.222Z,2.92
2018-02-05T03:30:13.336Z,2.93
2018-02-05T03:30:39.457Z,2.85
2018-02-05T03:31:05.603Z,2.95
2018-02-05T03:31:31.714Z,2.87
2018-02-05T03:31:57.829Z,2.92
2018-02-05T03:32:23.940Z,2.85
2018-02-05T03:32:50.058Z,2.87
2018-02-05T03:33:16.168Z,2.85
2018-02-05T03:33:42.283Z,2.85
2018-02-05T03:34:08.399Z,2.77
2018-02-05T03:34:34.513Z,2.75
2018-02-05T03:35:00.623Z,2.77
2018-02-05T03:35:26.740Z,2.75
2018-02-05T03:35:52.851Z,2.72
2018-02-05T03:36:18.958Z,2.69
2018-02-05T03:36:45.076Z,2.67
2018-02-05T03:37:11.180Z,2.67
2018-02-05T03:37:37.290Z,2.54
2018-02-05T03:38:03.407Z,2.57
2018-02-05T03:38:29.516Z,2.6
2018-02-05T03:38:55.644Z,2.57
2018-02-05T03:39:21.759Z,2.6
2018-02-05T03:39:47.868Z,2.54
2018-02-05T03:40:13.983Z,2.56
2018-02-05T03:40:40.101Z,2.53
2018-02-05T03:41:06.213Z,2.61
2018-02-05T03:41:32.330Z,2.57
2018-02-05T03:41:58.458Z,2.51
2018-02-05T03:42:24.575Z,2.51
2018-02-05T03:42:50.687Z,2.53
2018-02-05T03:43:16.802Z,2.51
2018-02-05T03:43:42.917Z,2.44
2018-02-05T03:44:09.027Z,2.44
2018-02-05T03:44:35.135Z,2.56
2018-02-05T03:45:01.254Z,2.56
2018-02-05T03:45:27.366Z,2.6
2018-02-05T03:45:53.479Z,2.57
2018-02-05T03:46:19.593Z,2.46
2018-02-05T03:46:45.711Z,2.46
2018-02-05T03:47:11.821Z,2.51
2018-02-05T03:47:37.933Z,2.47
2018-02-05T03:48:04.052Z,2.43
2018-02-05T03:48:30.163Z,2.42
2018-02-05T03:48:56.270Z,2.33
2018-02-05T03:49:22.408Z,2.38
2018-02-05T03:49:48.522Z,2.35
2018-02-05T03:50:14.634Z,2.29
2018-02-05T03:50:40.751Z,2.33
2018-02-05T03:51:06.859Z,2.43
2018-02-05T03:51:32.966Z,2.35
2018-02-05T03:51:59.084Z,2.32
2018-02-05T03:52:25.195Z,2.31
2018-02-05T03:52:51.312Z,2.28
2018-02-05T03:53:17.422Z,2.28
2018-02-05T03:53:43.543Z,2.26
2018-02-05T03:54:09.655Z,2.24
2018-02-05T03:54:35.764Z,2.26
2018-02-05T03:55:01.885Z,2.32
2018-02-05T03:55:27.996Z,2.29
2018-02-05T03:55:54.105Z,2.24
2018-02-05T03:56:20.224Z,2.32
2018-02-05T03:56:46.333Z,2.28
2018-02-05T03:57:12.449Z,2.29
2018-02-05T03:57:38.565Z,2.26
2018-02-05T03:58:04.678Z,2.22
2018-02-05T03:58:30.797Z,2.31
2018-02-05T03:58:56.908Z,2.17
2018-02-05T03:59:23.018Z,2.24
2018-02-05T03:59:49.129Z,2.17
2018-02-05T04:00:15.241Z,2.15
2018-02-05T04:00:41.358Z,2.17
2018-02-05T04:01:07.471Z,2.18
2018-02-05T04:01:33.584Z,2.22
2018-02-05T04:01:59.701Z,2.17
2018-02-05T04:02:25.811Z,2.2
2018-02-05T04:02:51.930Z,2.33
2018-02-05T04:03:18.039Z,2.29
2018-02-05T04:03:44.150Z,2.24
2018-02-05T04:04:10.267Z,2.28
2018-02-05T04:04:36.392Z,2.31
2018-02-05T04:05:02.506Z,2.31
2018-02-05T04:05:28.652Z,2.29
2018-02-05T04:05:54.762Z,2.31
2018-02-05T04:06:20.873Z,2.31
2018-02-05T04:06:46.984Z,2.31
2018-02-05T04:07:13.099Z,2.31
2018-02-05T04:07:39.207Z,2.38
2018-02-05T04:08:05.322Z,2.33
2018-02-05T04:08:31.438Z,2.31
2018-02-05T04:08:57.546Z,2.28
2018-02-05T04:09:23.664Z,2.32
2018-02-05T04:09:49.778Z,2.29
2018-02-05T04:10:15.887Z,2.39
2018-02-05T04:10:42.005Z,2.42
2018-02-05T04:11:08.114Z,2.32
2018-02-05T04:11:34.250Z,2.31
2018-02-05T04:12:00.375Z,2.36
2018-02-05T04:12:26.487Z,2.33
2018-02-05T04:12:52.623Z,2.33
2018-02-05T04:13:18.735Z,2.31
2018-02-05T04:13:44.850Z,2.42
2018-02-05T04:14:11.002Z,2.43
2018-02-05T04:14:37.119Z,2.39
2018-02-05T04:15:03.236Z,2.42
2018-02-05T04:15:29.341Z,2.35
2018-02-05T04:15:55.458Z,2.36
2018-02-05T04:16:21.569Z,2.44
2018-02-05T04:16:47.685Z,2.42
2018-02-05T04:17:13.796Z,2.47
2018-02-05T04:17:39.913Z,2.46
2018-02-05T04:18:06.022Z,2.5
2018-02-05T04:18:32.135Z,2.49
2018-02-05T04:18:58.249Z,2.61
2018-02-05T04:19:24.361Z,2.54
2018-02-05T04:19:50.475Z,2.5
2018-02-05T04:20:16.587Z,2.67
2018-02-05T04:20:42.696Z,2.67
2018-02-05T04:21:08.815Z,2.68
2018-02-05T04:21:34.926Z,2.65
2018-02-05T04:22:01.036Z,2.65
2018-02-05T04:22:27.151Z,2.64
2018-02-05T04:22:53.268Z,2.64
2018-02-05T04:23:19.381Z,2.51
2018-02-05T04:23:45.490Z,2.51
2018-02-05T04:24:11.627Z,2.57
2018-02-05T04:24:37.738Z,2.61
2018-02-05T04:25:03.858Z,2.6
2018-02-05T04:25:29.973Z,2.68
2018-02-05T04:25:56.087Z,2.51
2018-02-05T04:26:22.211Z,2.5
2018-02-05T04:26:48.325Z,2.53
2018-02-05T04:27:14.435Z,2.54
2018-02-05T04:27:40.570Z,2.54
2018-02-05T04:28:06.688Z,2.54
2018-02-05T04:28:32.818Z,2.56
2018-02-05T04:28:58.935Z,2.54
2018-02-05T04:29:25.054Z,2.57
2018-02-05T04:29:51.162Z,2.64
2018-02-05T04:30:17.279Z,2.62
2018-02-05T04:30:43.393Z,2.68
2018-02-05T04:31:09.495Z,2.64
2018-02-05T04:31:35.612Z,2.72
2018-02-05T04:32:01.719Z,2.64
2018-02-05T04:32:27.854Z,2.68
2018-02-05T04:32:53.971Z,2.72
2018-02-05T04:33:20.081Z,2.71
2018-02-05T04:33:46.203Z,2.62
2018-02-05T04:34:12.312Z,2.68
2018-02-05T04:34:38.421Z,2.68
2018-02-05T04:35:04.540Z,2.68
2018-02-05T04:35:30.646Z,2.61
2018-02-05T04:35:56.758Z,2.68
2018-02-05T04:36:22.875Z,2.62
2018-02-05T04:36:48.986Z,2.62
2018-02-05T04:37:15.105Z,2.69
2018-02-05T04:37:41.232Z,2.65
2018-02-05T04:38:07.348Z,2.72
2018-02-05T04:38:33.463Z,2.69
2018-02-05T04:38:59.569Z,2.64
2018-02-05T04:39:25.680Z,2.69
2018-02-05T04:39:51.798Z,2.71
2018-02-05T04:40:17.907Z,2.72
2018-02-05T04:40:44.021Z,2.64
2018-02-05T04:41:10.147Z,2.61
2018-02-05T04:41:36.270Z,2.72
2018-02-05T04:42:02.390Z,2.71
2018-02-05T04:42:28.505Z,2.72
2018-02-05T04:42:54.620Z,2.68
2018-02-05T04:43:20.733Z,2.69
2018-02-05T04:43:46.840Z,2.69
2018-02-05T04:44:12.955Z,2.69
2018-02-05T04:44:39.071Z,2.64
2018-02-05T04:45:05.185Z,2.67
2018-02-05T04:45:31.291Z,2.65
2018-02-05T04:45:57.408Z,2.72
2018-02-05T04:46:23.526Z,2.65
2018-02-05T04:46:49.655Z,2.71
2018-02-05T04:47:15.770Z,2.64
2018-02-05T04:47:41.877Z,2.71
2018-02-05T04:48:07.996Z,2.72
2018-02-05T04:48:34.127Z,2.77
2018-02-05T04:49:00.245Z,2.72
2018-02-05T04:49:26.390Z,2.75
2018-02-05T04:49:52.493Z,2.68
2018-02-05T04:50:18.611Z,2.67
2018-02-05T04:50:44.714Z,2.77
2018-02-05T04:51:10.834Z,2.72
2018-02-05T04:51:36.949Z,2.64
2018-02-05T04:52:03.064Z,2.68
2018-02-05T04:52:29.176Z,2.69
2018-02-05T04:52:55.286Z,2.69
2018-02-05T04:53:21.397Z,2.72
2018-02-05T04:53:47.514Z,2.62
2018-02-05T04:54:13.622Z,2.69
2018-02-05T04:54:39.739Z,2.71
2018-02-05T04:55:05.861Z,2.68
2018-02-05T04:55:31.965Z,2.71
2018-02-05T04:55:58.078Z,2.69
2018-02-05T04:56:24.194Z,2.69
2018-02-05T04:56:50.308Z,2.74
2018-02-05T04:57:16.422Z,2.72
2018-02-05T04:57:42.536Z,2.74
2018-02-05T04:58:08.645Z,2.74
2018-02-05T04:58:34.763Z,2.74
2018-02-05T04:59:00.878Z,2.69
2018-02-05T04:59:27.005Z,2.65
2018-02-05T04:59:53.122Z,2.64
2018-02-05T05:00:19.236Z,2.72
2018-02-05T05:00:45.349Z,2.67
2018-02-05T05:01:11.469Z,2.69
2018-02-05T05:01:37.582Z,2.77
2018-02-05T05:02:03.694Z,2.75
2018-02-05T05:02:29.805Z,2.69
2018-02-05T05:02:55.916Z,2.82
2018-02-05T05:03:22.032Z,2.86
2018-02-05T05:03:48.161Z,2.77
2018-02-05T05:04:14.281Z,2.89
2018-02-05T05:04:40.385Z,2.89
2018-02-05T05:05:06.501Z,2.87
2018-02-05T05:05:32.616Z,2.86
2018-02-05T05:05:58.729Z,2.85
2018-02-05T05:06:24.844Z,2.83
2018-02-05T05:06:50.952Z,2.83
2018-02-05T05:07:17.067Z,2.87
2018-02-05T05:07:43.177Z,3.01
2018-02-05T05:08:09.293Z,2.85
2018-02-05T05:08:35.408Z,2.87
2018-02-05T05:09:01.521Z,2.86
2018-02-05T05:09:27.639Z,2.89
2018-02-05T05:09:53.750Z,2.86
2018-02-05T05:10:19.868Z,2.85
2018-02-05T05:10:45.979Z,2.83
2018-02-05T05:11:12.093Z,2.87
2018-02-05T05:11:38.208Z,2.93
2018-02-05T05:12:04.341Z,2.87
2018-02-05T05:12:30.460Z,2.83
2018-02-05T05:12:56.593Z,2.83
2018-02-05T05:13:22.710Z,2.87
2018-02-05T05:13:48.930Z,2.92
2018-02-05T05:14:14.931Z,2.89
2018-02-05T05:14:41.041Z,2.86
2018-02-05T05:15:07.157Z,2.8
2018-02-05T05:15:33.265Z,2.74
2018-02-05T05:15:59.386Z,2.72
2018-02-05T05:16:25.541Z,2.8
2018-02-05T05:16:51.608Z,2.86
2018-02-05T05:17:17.724Z,2.86
2018-02-05T05:17:43.836Z,2.9
2018-02-05T05:18:09.950Z,2.86
2018-02-05T05:18:36.062Z,2.83
2018-02-05T05:19:02.183Z,2.87
2018-02-05T05:19:28.288Z,2.85
2018-02-05T05:19:54.428Z,2.89
2018-02-05T05:20:20.562Z,2.85
2018-02-05T05:20:46.698Z,2.83
2018-02-05T05:21:12.813Z,2.82
2018-02-05T05:21:38.919Z,2.87
2018-02-05T05:22:05.032Z,2.86
2018-02-05T05:22:31.143Z,2.83
2018-02-05T05:22:57.253Z,2.87
2018-02-05T05:23:23.372Z,2.87
2018-02-05T05:23:49.481Z,2.8
2018-02-05T05:24:15.595Z,2.83
2018-02-05T05:24:41.707Z,2.82
2018-02-05T05:25:07.822Z,2.85
2018-02-05T05:25:33.938Z,2.8
2018-02-05T05:26:00.050Z,2.89
2018-02-05T05:26:26.181Z,2.75
2018-02-05T05:26:52.321Z,2.79
2018-02-05T05:27:18.434Z,2.71
2018-02-05T05:27:44.545Z,2.75
2018-02-05T05:28:10.658Z,2.83
2018-02-05T05:28:36.772Z,2.74
2018-02-05T05:29:02.885Z,2.87
2018-02-05T05:29:29.000Z,2.8
2018-02-05T05:29:55.118Z,2.83
2018-02-05T05:30:21.227Z,2.87
2018-02-05T05:30:47.343Z,2.8
2018-02-05T05:31:13.452Z,2.86
2018-02-05T05:31:39.565Z,2.85
2018-02-05T05:32:05.683Z,2.85
2018-02-05T05:32:31.793Z,2.86
2018-02-05T05:32:57.929Z,2.89
2018-02-05T05:33:24.039Z,2.86
2018-02-05T05:33:50.155Z,2.85
2018-02-05T05:34:16.272Z,2.83
2018-02-05T05:34:42.381Z,2.86
2018-02-05T05:35:08.511Z,2.8
2018-02-05T05:35:34.629Z,2.85
2018-02-05T05:36:00.741Z,2.82
2018-02-05T05:36:26.853Z,2.86
2018-02-05T05:36:52.970Z,2.83
2018-02-05T05:37:19.078Z,2.9
2018-02-05T05:37:45.186Z,2.87
2018-02-05T05:38:11.299Z,2.92
2018-02-05T05:38:37.409Z,2.9
2018-02-05T05:39:03.532Z,2.87
2018-02-05T05:39:29.642Z,2.95
2018-02-05T05:39:55.757Z,2.87
2018-02-05T05:40:21.870Z,2.89
2018-02-05T05:40:48.008Z,2.98
2018-02-05T05:41:14.114Z,2.85
2018-02-05T05:41:40.249Z,2.85
2018-02-05T05:42:06.367Z,2.93
2018-02-05T05:42:32.480Z,2.89
2018-02-05T05:42:58.597Z,2.86
2018-02-05T05:43:24.706Z,2.85
2018-02-05T05:43:50.834Z,2.95
2018-02-05T05:44:16.944Z,3.01
2018-02-05T05:44:43.057Z,3
2018-02-05T05:45:09.173Z,3.05
2018-02-05T05:45:35.284Z,3.05
2018-02-05T05:46:01.405Z,3.01
2018-02-05T05:46:27.534Z,3.01
2018-02-05T05:46:53.647Z,3.03
2018-02-05T05:47:19.764Z,3.03
2018-02-05T05:47:45.876Z,3.01
2018-02-05T05:48:11.992Z,3.01
2018-02-05T05:48:38.109Z,3